This is the latest recevied weather packets stored in our database for station/object OM6ACB-6. If no packets are shown the sender has not sent any weather packets the latest 1 day(s).
| Time | Temp. | Humidity | Pressure | Rain* | Wind** | Luminosity | Snow |
|---|---|---|---|---|---|---|---|
| 1777966485 | 21.67° C | 22% | 1016.9 hPa | 0 mm | 0 m/s | - | - |
| 1777965884 | 19.44° C | 23% | 1016.5 hPa | 0 mm | 0.45 m/s, 148° | - | - |
| 1777965284 | 18.89° C | 23% | 1016.5 hPa | 0 mm | 0 m/s | - | - |
| 1777964684 | 18.89° C | 23% | 1016.7 hPa | 0 mm | 0.45 m/s, 171° | - | - |
| 1777964083 | 18.89° C | 23% | 1016.7 hPa | 0 mm | 0.45 m/s, 155° | - | - |
| 1777963483 | 16.67° C | 24% | 1016.5 hPa | 0 mm | 0 m/s | - | - |
| 1777962883 | 16.67° C | 24% | 1016.5 hPa | 0 mm | 0 m/s | - | - |
| 1777962282 | 15.56° C | 25% | 1016.5 hPa | 0 mm | 0 m/s | - | - |
| 1777961682 | 15.56° C | 25% | 1016.4 hPa | 0 mm | 0 m/s | - | - |
| 1777961082 | 16.11° C | 24% | 1016.5 hPa | 0 mm | 0.45 m/s, 161° | - | - |
| 1777960482 | 15° C | 25% | 1016.4 hPa | 0 mm | 0 m/s | - | - |
| 1777959881 | 14.44° C | 25% | 1016.4 hPa | 0 mm | 0 m/s | - | - |
| 1777959281 | 12.78° C | 26% | 1016 hPa | 0 mm | 0 m/s | - | - |
| 1777958681 | 12.78° C | 26% | 1016.2 hPa | 0 mm | 0 m/s | - | - |
| 1777958080 | 7.22° C | 29% | 1015.2 hPa | 0 mm | 0 m/s | - | - |
| 1777957480 | 7.22° C | 29% | 1015.2 hPa | 0 mm | 0 m/s | - | - |
| 1777956880 | 7.22° C | 29% | 1015.3 hPa | 0 mm | 0 m/s | - | - |
| 1777956280 | 5.56° C | 30% | 1015 hPa | 0 mm | 0 m/s | - | - |
| 1777955679 | 6.67° C | 29% | 1015.2 hPa | 0 mm | 0 m/s | - | - |
| 1777955079 | 5.56° C | 30% | 1015.1 hPa | 0 mm | 0 m/s | - | - |
| 1777954479 | 2.22° C | 45% | 1014.5 hPa | 0 mm | 0 m/s | - | - |
* Rain latest hour (hover to see other rain measurements)
** Current wind speed in m/s (hover to see current wind gust speed)